Time;durP1;ratioP1;P1;durP2;ratioP2;P2;SDS_P1;SDS_P2;PMS_P1;PMS_P2;Temp;Humidity;BMP_temperature;BMP_pressure;BME280_temperature;BME280_humidity;BME280_pressure;Samples;Min_cycle;Max_cycle;Signal;HPM_P1;HPM_P2
2020/12/07 00:01:15;;;;;;;9.50;7.10;;;;;;;-1.58;86.58;96809.50;1816055;77;21125;-50
2020/12/07 00:03:42;;;;;;;12.98;8.15;;;;;;;-1.53;86.33;96807.29;1815738;78;21044;-50
2020/12/07 00:06:10;;;;;;;11.83;7.03;;;;;;;-1.54;86.16;96803.50;1815909;78;21060;-51
2020/12/07 00:08:40;;;;;;;8.68;6.70;;;;;;;-1.61;86.25;96807.87;1779701;79;21481;-50
2020/12/07 00:11:10;;;;;;;17.00;7.05;;;;;;;-1.63;86.51;96792.21;1818093;77;22122;-51
2020/12/07 00:13:38;;;;;;;31.02;9.35;;;;;;;-1.63;86.57;96801.12;1821286;77;21061;-51
2020/12/07 00:16:10;;;;;;;24.85;8.95;;;;;;;-1.65;86.67;96801.14;1821454;78;21096;-51
2020/12/07 00:18:37;;;;;;;10.72;8.08;;;;;;;-1.64;86.82;96788.84;1821191;78;21556;-50
2020/12/07 00:21:10;;;;;;;10.60;7.05;;;;;;;-1.62;86.63;96792.63;1815981;78;21053;-51
2020/12/07 00:23:38;;;;;;;41.65;9.45;;;;;;;-1.61;86.56;96798.10;1807863;79;22121;-51
2020/12/07 00:26:10;;;;;;;44.10;10.95;;;;;;;-1.64;86.71;96813.01;1841130;77;21104;-50
2020/12/07 00:28:38;;;;;;;20.30;9.68;;;;;;;-1.61;86.75;96799.37;1815871;77;21112;-50
2020/12/07 00:31:06;;;;;;;15.80;8.45;;;;;;;-1.58;86.61;96800.59;1838985;77;21596;-51
2020/12/07 00:33:34;;;;;;;28.70;8.08;;;;;;;-1.58;86.44;96803.14;1819165;79;21566;-50
2020/12/07 00:36:04;;;;;;;35.40;8.75;;;;;;;-1.60;86.64;96820.15;1818916;78;22324;-51
2020/12/07 00:38:32;;;;;;;;;;;;;;;-1.59;86.44;96818.02;1821746;77;21080;-50
2020/12/07 00:41:00;;;;;;;11.38;8.25;;;;;;;-1.58;86.48;96800.18;1811401;78;20484;-50
2020/12/07 00:43:27;;;;;;;24.20;9.58;;;;;;;-1.57;86.49;96803.11;1819964;77;21109;-50
2020/12/07 00:45:57;;;;;;;14.20;7.00;;;;;;;-1.57;86.50;96799.73;1820172;78;21163;-51
2020/12/07 00:48:25;;;;;;;16.70;7.33;;;;;;;-1.57;86.23;96819.65;1818891;78;21358;-51
2020/12/07 00:50:53;;;;;;;36.90;10.10;;;;;;;-1.60;86.30;96790.44;1819938;78;21477;-51
2020/12/07 00:53:21;;;;;;;21.15;8.75;;;;;;;-1.60;86.70;96795.97;1821657;78;21470;-51
2020/12/07 00:55:49;;;;;;;10.90;8.03;;;;;;;-1.54;86.52;96794.59;1820772;77;21033;-50
2020/12/07 00:58:18;;;;;;;30.35;9.20;;;;;;;-1.50;86.24;96796.19;1778173;79;21105;-51
2020/12/07 01:00:47;;;;;;;13.00;7.28;;;;;;;-1.51;86.05;96800.45;1777532;80;21389;-51
2020/12/07 01:03:15;;;;;;;9.90;6.53;;;;;;;-1.52;85.95;96789.03;1777480;80;21123;-50
2020/12/07 01:05:43;;;;;;;22.98;8.40;;;;;;;-1.53;85.86;96794.98;1777683;80;21471;-50
2020/12/07 01:08:13;;;;;;;11.30;7.47;;;;;;;-1.56;86.04;96803.97;1777552;80;21158;-51
2020/12/07 01:10:42;;;;;;;11.18;7.12;;;;;;;-1.58;85.96;96787.45;1792526;79;21046;-52
2020/12/07 01:13:10;;;;;;;13.33;6.93;;;;;;;-1.60;86.03;96792.16;1759765;80;21281;-51
2020/12/07 01:15:39;;;;;;;18.32;7.67;;;;;;;-1.61;86.15;96803.19;1756054;81;21090;-51
2020/12/07 01:18:06;;;;;;;17.23;7.58;;;;;;;-1.60;86.19;96780.27;1761176;81;21117;-50
2020/12/07 01:20:35;;;;;;;29.55;8.95;;;;;;;-1.58;86.01;96777.69;1761326;81;21121;-50
2020/12/07 01:23:05;;;;;;;20.88;7.15;;;;;;;-1.62;86.06;96778.19;1759650;81;21586;-52
2020/12/07 01:25:33;;;;;;;9.70;6.53;;;;;;;-1.64;86.10;96790.55;1818534;77;21985;-50
2020/12/07 01:28:01;;;;;;;9.20;7.12;;;;;;;-1.64;86.07;96800.29;1815997;79;21064;-51
2020/12/07 01:30:29;;;;;;;24.55;7.33;;;;;;;-1.69;86.14;96790.19;1818631;77;21052;-50
2020/12/07 01:32:58;;;;;;;;;;;;;;;-1.69;86.22;96785.55;1824708;77;21450;-52
2020/12/07 01:35:27;;;;;;;14.55;7.30;;;;;;;-1.69;86.28;96785.10;1818659;77;20446;-50
2020/12/07 01:37:55;;;;;;;10.58;6.60;;;;;;;-1.67;86.13;96771.91;1815850;79;21282;-51
2020/12/07 01:40:23;;;;;;;28.85;8.20;;;;;;;-1.69;86.22;96776.20;1756181;80;21065;-51
2020/12/07 01:42:51;;;;;;;25.00;8.68;;;;;;;-1.69;86.20;96783.83;1780861;79;21076;-51
2020/12/07 01:45:19;;;;;;;10.73;7.70;;;;;;;-1.70;86.19;96777.50;1810220;79;21502;-51
2020/12/07 01:47:46;;;;;;;25.85;7.62;;;;;;;-1.73;86.32;96773.33;1809965;79;21538;-51
2020/12/07 01:50:15;;;;;;;32.23;9.18;;;;;;;-1.71;86.33;96777.08;1814539;77;21192;-51
2020/12/07 01:52:43;;;;;;;9.73;7.30;;;;;;;-1.67;86.35;96774.90;1779517;79;21546;-51
2020/12/07 01:55:12;;;;;;;12.73;7.08;;;;;;;-1.63;86.01;96773.95;1826054;77;21061;-50
2020/12/07 01:57:50;;;;;;;14.33;6.50;;;;;;;-1.59;85.85;96755.68;1889149;74;22056;-50
2020/12/07 02:00:19;;;;;;;17.55;7.83;;;;;;;-1.65;85.82;96773.59;1819487;77;21049;-50
2020/12/07 02:02:46;;;;;;;10.08;7.15;;;;;;;-1.68;86.00;96765.58;1764439;80;21802;-50
2020/12/07 02:05:16;;;;;;;10.78;7.15;;;;;;;-1.70;85.82;96770.69;1843734;77;21116;-51
2020/12/07 02:07:45;;;;;;;14.87;7.97;;;;;;;-1.72;85.76;96780.07;1773897;81;21569;-51
2020/12/07 02:10:13;;;;;;;10.75;7.05;;;;;;;-1.82;86.01;96786.20;1790623;80;21584;-50
2020/12/07 02:12:42;;;;;;;20.08;6.92;;;;;;;-1.91;86.30;96773.64;1807268;79;21054;-50
2020/12/07 02:15:09;;;;;;;12.23;5.47;;;;;;;-1.95;86.64;96766.50;1807080;79;21394;-52
2020/12/07 02:17:37;;;;;;;11.35;7.00;;;;;;;-1.98;86.73;96789.44;1806997;79;21168;-51
2020/12/07 02:20:05;;;;;;;15.63;7.78;;;;;;;-1.98;86.73;96778.44;1803711;79;20967;-51
2020/12/07 02:22:33;;;;;;;8.68;5.53;;;;;;;-1.98;86.82;96765.28;1807066;79;21169;-50
2020/12/07 02:25:10;;;;;;;16.10;7.30;;;;;;;-1.95;86.63;96767.78;1880120;76;22679;-51
2020/12/07 02:27:38;;;;;;;7.70;5.42;;;;;;;-2.05;86.73;96770.09;1827058;78;21050;-51
2020/12/07 02:30:06;;;;;;;17.80;8.08;;;;;;;-2.08;86.83;96777.77;1795367;78;21203;-51
2020/12/07 02:32:35;;;;;;;;;;;;;;;-2.04;86.89;96769.20;1841644;77;21004;-52
2020/12/07 02:35:11;;;;;;;11.83;6.15;;;;;;;-2.05;86.66;96770.09;1848909;76;20142;-50
2020/12/07 02:37:42;;;;;;;21.05;9.05;;;;;;;-2.08;86.67;96768.87;1779264;80;21057;-51
2020/12/07 02:40:13;;;;;;;12.82;7.25;;;;;;;-2.07;86.64;96774.37;1790979;79;21156;-51
2020/12/07 02:42:42;;;;;;;9.17;6.77;;;;;;;-2.12;86.62;96801.14;1756544;80;22115;-51
2020/12/07 02:45:15;;;;;;;10.13;6.40;;;;;;;-2.16;86.76;96784.24;1784309;80;21034;-51
2020/12/07 02:47:45;;;;;;;24.32;9.00;;;;;;;-2.16;86.75;96777.88;1779061;80;21157;-51
2020/12/07 02:50:14;;;;;;;14.43;7.58;;;;;;;-2.15;86.84;96775.77;1771492;81;21141;-51
2020/12/07 02:52:43;;;;;;;11.50;7.05;;;;;;;-2.14;86.78;96776.59;1764661;81;21126;-51
2020/12/07 02:55:12;;;;;;;;;;;;;;;-2.18;86.71;96776.25;1760801;81;21245;-51
2020/12/07 02:57:41;;;;;;;7.47;4.92;;;;;;;-2.24;86.83;96762.78;1766444;81;20220;-51
2020/12/07 03:00:11;;;;;;;8.43;5.72;;;;;;;-2.26;86.94;96764.94;1771150;81;21101;-51
2020/12/07 03:02:41;;;;;;;20.82;7.87;;;;;;;-2.24;86.93;96779.72;1768360;81;21095;-50
2020/12/07 03:05:10;;;;;;;15.38;7.20;;;;;;;-2.28;86.84;96778.94;1780343;80;21498;-51
2020/12/07 03:07:40;;;;;;;13.10;7.85;;;;;;;-2.33;86.98;96778.63;1780453;80;21375;-50
2020/12/07 03:10:08;;;;;;;12.88;8.08;;;;;;;-2.37;87.01;96773.99;1783245;80;21097;-51
2020/12/07 03:12:38;;;;;;;15.00;8.90;;;;;;;-2.38;87.04;96765.16;1790795;80;21041;-51
2020/12/07 03:15:07;;;;;;;11.88;7.00;;;;;;;-2.41;86.91;96769.40;1796183;79;21538;-50
2020/12/07 03:17:36;;;;;;;12.13;7.42;;;;;;;-2.46;87.12;96766.09;1791086;79;21132;-50
2020/12/07 03:20:04;;;;;;;21.73;7.55;;;;;;;-2.46;87.11;96768.64;1788445;80;22088;-50
2020/12/07 03:22:32;;;;;;;13.78;8.13;;;;;;;-2.45;87.09;96773.28;1788189;79;21068;-50
2020/12/07 03:25:00;;;;;;;10.53;6.60;;;;;;;-2.44;86.91;96766.91;1787253;79;21499;-50
2020/12/07 03:27:30;;;;;;;17.57;7.47;;;;;;;-2.46;86.99;96767.81;1793804;80;21066;-50
2020/12/07 03:29:58;;;;;;;14.58;8.35;;;;;;;-2.46;86.90;96761.45;1800470;79;21052;-50
2020/12/07 03:32:28;;;;;;;9.60;6.40;;;;;;;-2.46;86.79;96765.27;1818437;79;21193;-51
2020/12/07 03:34:56;;;;;;;13.75;8.23;;;;;;;-2.48;86.78;96740.33;1818398;79;21570;-51
2020/12/07 03:37:25;;;;;;;13.43;7.87;;;;;;;-2.53;86.81;96750.56;1805473;79;21546;-50
2020/12/07 03:39:54;;;;;;;23.25;9.10;;;;;;;-2.59;86.91;96743.85;1792805;80;21597;-50
2020/12/07 03:42:23;;;;;;;12.95;8.08;;;;;;;-2.60;87.14;96755.31;1801904;79;21108;-53
2020/12/07 03:44:51;;;;;;;14.80;8.33;;;;;;;-2.61;87.26;96754.48;1733937;81;21274;-50
2020/12/07 03:47:21;;;;;;;16.17;8.23;;;;;;;-2.60;87.22;96757.44;1761765;81;21086;-50
2020/12/07 03:49:49;;;;;;;11.55;6.95;;;;;;;-2.57;87.05;96739.19;1761856;81;21051;-50
2020/12/07 03:52:18;;;;;;;13.08;7.08;;;;;;;-2.53;86.97;96754.37;1783820;80;21058;-50
2020/12/07 03:54:47;;;;;;;11.08;6.47;;;;;;;-2.48;86.80;96758.94;1793053;80;21125;-51
2020/12/07 03:57:15;;;;;;;14.33;8.83;;;;;;;-2.51;86.70;96777.21;1798504;79;22304;-52
2020/12/07 03:59:45;;;;;;;12.25;7.05;;;;;;;-2.53;86.86;96763.67;1817746;78;21018;-50
2020/12/07 04:02:13;;;;;;;19.50;9.40;;;;;;;-2.53;86.88;96765.80;1818197;79;21601;-50
2020/12/07 04:07:25;;;;;;;27.83;9.00;;;;;;;-2.46;86.69;96763.55;1873629;76;22241;-51
2020/12/07 04:09:53;;;;;;;12.25;7.30;;;;;;;-2.54;86.76;96756.94;1840940;78;21150;-51
2020/12/07 04:12:21;;;;;;;17.73;7.97;;;;;;;-2.52;86.75;96766.63;1811298;78;21198;-51
2020/12/07 04:14:50;;;;;;;12.43;8.45;;;;;;;-2.51;86.81;96756.89;1841490;78;21145;-50
2020/12/07 04:17:18;;;;;;;13.70;7.20;;;;;;;-2.50;86.61;96753.05;1829865;78;21153;-50
2020/12/07 04:19:46;;;;;;;15.43;7.53;;;;;;;-2.53;86.68;96740.39;1829332;78;21047;-51
2020/12/07 04:22:14;;;;;;;17.52;8.45;;;;;;;-2.55;86.66;96740.86;1841572;77;21063;-50
2020/12/07 04:24:41;;;;;;;18.02;6.55;;;;;;;-2.56;86.63;96744.25;1831965;78;22258;-50
2020/12/07 04:27:09;;;;;;;14.90;7.90;;;;;;;-2.59;86.66;96743.85;1808558;78;21126;-50
2020/12/07 04:29:37;;;;;;;11.55;7.37;;;;;;;-2.61;86.76;96748.57;1808475;79;21590;-50
2020/12/07 04:32:05;;;;;;;19.45;9.23;;;;;;;-2.61;86.60;96739.23;1808813;78;21047;-51
2020/12/07 04:34:34;;;;;;;23.22;8.23;;;;;;;-2.59;86.57;96732.86;1808660;79;21063;-50
2020/12/07 04:37:01;;;;;;;10.23;5.42;;;;;;;-2.59;86.48;96740.05;1808608;78;21194;-51
2020/12/07 04:39:29;;;;;;;27.67;9.35;;;;;;;-2.60;86.41;96733.30;1833736;78;21055;-50
2020/12/07 04:42:01;;;;;;;32.07;9.60;;;;;;;-2.55;86.45;96741.27;1841413;77;21130;-51
2020/12/07 04:44:29;;;;;;;21.60;9.18;;;;;;;-2.49;86.07;96743.28;1816186;78;21673;-50
2020/12/07 04:46:58;;;;;;;14.23;8.35;;;;;;;-2.43;86.05;96737.27;1808678;79;21169;-50
2020/12/07 04:49:30;;;;;;;14.30;8.35;;;;;;;-2.35;85.74;96746.02;1808569;78;21291;-51
2020/12/07 04:51:59;;;;;;;12.95;6.70;;;;;;;-2.36;85.15;96733.75;1807447;78;21123;-50
2020/12/07 04:54:28;;;;;;;14.50;8.20;;;;;;;-2.45;85.22;96723.32;1779777;79;21591;-49
2020/12/07 04:56:57;;;;;;;39.45;9.75;;;;;;;-2.49;85.24;96733.55;1806850;79;21141;-50
2020/12/07 04:59:24;;;;;;;23.60;8.73;;;;;;;-2.50;85.70;96721.30;1808626;79;21079;-51
2020/12/07 05:01:52;;;;;;;21.48;8.68;;;;;;;-2.48;85.26;96728.45;1779102;79;22091;-51
2020/12/07 05:04:20;;;;;;;13.08;7.78;;;;;;;-2.49;85.39;96731.02;1808563;78;21098;-50
2020/12/07 05:07:03;;;;;;;11.68;7.47;;;;;;;-2.52;85.22;96729.79;1811821;78;21118;-51
2020/12/07 05:09:33;;;;;;;13.72;7.15;;;;;;;-2.51;85.17;96723.86;1813505;79;21055;-54
2020/12/07 05:12:04;;;;;;;13.08;7.55;;;;;;;-2.49;85.01;96728.03;1787567;79;21105;-50
2020/12/07 05:14:32;;;;;;;14.70;6.58;;;;;;;-2.48;84.86;96734.80;1804402;79;21415;-52
2020/12/07 05:17:00;;;;;;;9.48;6.30;;;;;;;-2.52;84.76;96739.95;1781884;80;21098;-50
2020/12/07 05:19:29;;;;;;;11.97;6.55;;;;;;;-2.60;84.69;96726.95;1781521;80;21154;-51
2020/12/07 05:21:57;;;;;;;13.35;8.00;;;;;;;-2.66;84.89;96718.16;1734213;82;21191;-50
2020/12/07 05:24:26;;;;;;;8.18;5.58;;;;;;;-2.67;85.04;96711.83;1734394;82;21101;-51
2020/12/07 05:26:54;;;;;;;;;;;;;;;-2.67;85.02;96712.66;1758958;80;21486;-52
2020/12/07 05:32:34;;;;;;;11.27;7.83;;;;;;;-2.66;84.87;96706.72;1850839;75;27856;-51
2020/12/07 05:35:02;;;;;;;13.22;8.33;;;;;;;-2.62;85.03;96715.13;1826648;78;21199;-51
2020/12/07 05:37:35;;;;;;;15.00;8.03;;;;;;;-2.56;84.58;96729.01;1831347;78;21355;-50
2020/12/07 05:40:06;;;;;;;17.40;8.88;;;;;;;-2.55;84.27;96715.45;1823898;77;21099;-50
2020/12/07 05:42:34;;;;;;;10.43;6.37;;;;;;;-2.60;84.35;96704.09;1817408;77;21156;-51
2020/12/07 05:45:03;;;;;;;14.53;7.87;;;;;;;-2.68;84.46;96701.25;1823371;77;21131;-51
2020/12/07 05:47:32;;;;;;;13.60;8.80;;;;;;;-2.77;84.81;96700.53;1812539;78;21166;-51
2020/12/07 05:50:01;;;;;;;17.20;8.85;;;;;;;-2.78;85.07;96707.77;1830851;76;21631;-51
2020/12/07 05:52:42;;;;;;;12.37;6.92;;;;;;;-2.77;84.94;96698.44;1836804;76;21558;-51
2020/12/07 05:55:09;;;;;;;13.13;7.50;;;;;;;-2.77;84.89;96723.83;1841176;76;21053;-51
2020/12/07 05:57:58;;;;;;;14.03;8.50;;;;;;;-2.84;84.82;96745.95;1838594;76;21097;-52
2020/12/07 06:00:26;;;;;;;14.40;8.33;;;;;;;-2.89;84.90;96714.70;1807857;77;21064;-50
2020/12/07 06:02:55;;;;;;;19.12;9.18;;;;;;;-2.98;85.22;96711.03;1815541;78;21368;-51
2020/12/07 06:05:24;;;;;;;17.20;9.85;;;;;;;-3.01;85.41;96714.88;1827139;78;21911;-50
2020/12/07 06:08:04;;;;;;;12.07;6.60;;;;;;;-2.99;85.59;96702.58;1839084;77;21088;-50
2020/12/07 06:10:53;;;;;;;16.67;9.23;;;;;;;-2.92;85.24;96704.59;1834675;77;21087;-50
2020/12/07 06:13:25;;;;;;;12.30;6.95;;;;;;;-2.89;84.74;96710.07;1824584;77;21143;-50
2020/12/07 06:15:54;;;;;;;14.55;7.28;;;;;;;-2.99;85.01;96724.16;1793166;77;21560;-51
2020/12/07 06:18:31;;;;;;;26.62;12.40;;;;;;;-3.01;85.07;96721.22;1790397;78;21101;-51
2020/12/07 06:21:07;;;;;;;35.48;10.90;;;;;;;-3.00;85.15;96717.39;1807581;77;21546;-51
2020/12/07 06:23:41;;;;;;;12.65;8.58;;;;;;;-3.00;85.04;96712.76;1832303;77;21042;-50
2020/12/07 06:26:14;;;;;;;15.72;8.45;;;;;;;-3.01;84.87;96727.16;1771553;79;21160;-51
2020/12/07 06:28:44;;;;;;;21.85;9.88;;;;;;;-3.02;84.97;96720.39;1778410;79;21305;-51
2020/12/07 06:31:15;;;;;;;20.05;8.83;;;;;;;-3.03;84.77;96721.69;1791620;77;21545;-51
2020/12/07 06:33:50;;;;;;;17.12;9.55;;;;;;;-3.07;85.07;96729.78;1810580;78;21106;-51
2020/12/07 06:36:35;;;;;;;29.42;14.35;;;;;;;-3.03;84.89;96723.78;1820215;77;21571;-50
2020/12/07 06:39:10;;;;;;;18.65;8.78;;;;;;;-3.01;84.79;96736.05;1799077;77;21173;-51
2020/12/07 06:41:40;;;;;;;22.73;10.23;;;;;;;-3.03;84.39;96722.52;1798849;78;22300;-52
2020/12/07 06:44:23;;;;;;;16.48;9.63;;;;;;;-3.10;84.66;96735.34;1786849;77;21073;-51
2020/12/07 06:47:07;;;;;;;23.00;10.88;;;;;;;-3.12;84.96;96719.30;1781341;78;21128;-50
2020/12/07 06:52:15;;;;;;;18.62;10.58;;;;;;;-3.15;84.71;96710.02;1763457;80;21839;-51
2020/12/07 06:55:08;;;;;;;23.38;10.45;;;;;;;-3.20;84.90;96725.30;1817761;77;21152;-50
2020/12/07 06:57:47;;;;;;;18.65;10.68;;;;;;;-3.20;85.18;96720.23;1802774;78;21177;-50
2020/12/07 07:00:25;;;;;;;25.30;10.75;;;;;;;-3.19;84.95;96752.38;1794863;78;21490;-50
2020/12/07 07:02:57;;;;;;;15.63;7.97;;;;;;;-3.17;85.04;96722.73;1795050;79;21160;-51
2020/12/07 07:05:29;;;;;;;21.73;9.05;;;;;;;-3.11;84.83;96723.05;1790364;77;21160;-51
2020/12/07 07:07:57;;;;;;;16.50;8.85;;;;;;;-3.00;84.49;96727.98;1829767;77;21395;-49
2020/12/07 07:10:25;;;;;;;14.85;8.65;;;;;;;-3.00;83.92;96736.44;1841632;77;21109;-50
2020/12/07 07:12:53;;;;;;;20.00;9.30;;;;;;;-3.09;83.99;96725.58;1797746;77;21165;-50
2020/12/07 07:15:21;;;;;;;24.57;10.13;;;;;;;-3.18;84.26;96737.98;1794343;78;21100;-51
2020/12/07 07:17:50;;;;;;;15.75;9.78;;;;;;;-3.26;84.69;96720.74;1791292;77;21829;-50
2020/12/07 07:20:21;;;;;;;16.52;9.28;;;;;;;-3.29;84.85;96711.91;1754950;79;21223;-51
2020/12/07 07:22:49;;;;;;;15.98;9.95;;;;;;;-3.31;84.99;96746.61;1790828;78;21054;-51
2020/12/07 07:28:09;;;;;;;19.12;10.25;;;;;;;-3.36;84.98;96715.78;1797508;78;21279;-51
2020/12/07 07:30:36;;;;;;;18.32;9.43;;;;;;;-3.37;84.96;96720.47;1804741;77;21211;-51
2020/12/07 07:33:04;;;;;;;14.73;8.25;;;;;;;-3.38;84.85;96716.24;1815351;77;21215;-50
2020/12/07 07:35:32;;;;;;;22.32;11.63;;;;;;;-3.41;84.99;96720.52;1789710;77;21163;-51
2020/12/07 07:38:01;;;;;;;20.17;10.53;;;;;;;-3.39;85.07;96712.05;1790742;78;21143;-52
2020/12/07 07:40:31;;;;;;;16.05;9.10;;;;;;;-3.36;84.89;96734.81;1811172;78;21167;-50
2020/12/07 07:43:03;;;;;;;14.20;7.87;;;;;;;-3.40;84.61;96737.00;1794276;77;21275;-51
2020/12/07 07:45:38;;;;;;;15.98;9.70;;;;;;;-3.45;84.71;96737.48;1794035;78;21757;-50
2020/12/07 08:15:55;;;;;;;14.98;8.05;;;;;;;-3.30;84.13;96728.00;1812649;79;21065;-52
2020/12/07 08:18:34;;;;;;;14.15;8.40;;;;;;;-3.31;83.52;96747.45;1737079;79;21076;-51
2020/12/07 08:21:03;;;;;;;16.70;10.25;;;;;;;-3.34;83.44;96751.29;1763389;80;21064;-51
2020/12/07 08:23:33;;;;;;;24.90;10.35;;;;;;;-3.33;83.61;96754.25;1812617;79;21195;-51
2020/12/07 08:26:01;;;;;;;15.75;7.95;;;;;;;-3.30;83.40;96743.23;1804584;79;21490;-52
2020/12/07 08:28:38;;;;;;;16.20;10.43;;;;;;;-3.29;83.24;96742.35;1801636;79;21172;-49
2020/12/07 08:31:20;;;;;;;21.62;10.78;;;;;;;-3.31;83.19;96761.41;1815928;78;21164;-50
2020/12/07 08:34:10;;;;;;;26.40;10.65;;;;;;;-3.36;83.24;96742.42;1812506;79;21109;-51
2020/12/07 08:36:37;;;;;;;28.15;9.78;;;;;;;-3.36;83.49;96745.41;1783079;80;21368;-51
2020/12/07 08:39:05;;;;;;;12.33;6.83;;;;;;;-3.30;83.14;96738.16;1776825;80;21065;-51
2020/12/07 08:41:34;;;;;;;19.77;10.68;;;;;;;-3.31;82.87;96738.56;1799735;79;21025;-51
2020/12/07 08:44:07;;;;;;;14.73;9.38;;;;;;;-3.35;82.79;96732.70;1804614;79;21065;-51
2020/12/07 08:46:39;;;;;;;17.25;10.68;;;;;;;-3.39;83.07;96737.42;1806845;78;21136;-51
2020/12/07 08:49:06;;;;;;;15.63;8.93;;;;;;;-3.39;82.93;96738.69;1790988;78;21427;-58
2020/12/07 08:51:36;;;;;;;22.85;11.20;;;;;;;-3.41;83.12;96731.94;1793564;79;21052;-51
2020/12/07 08:54:04;;;;;;;17.20;8.80;;;;;;;-3.44;82.99;96742.95;1793500;80;21041;-51
2020/12/07 08:56:32;;;;;;;25.03;10.63;;;;;;;-3.46;83.11;96721.84;1787365;79;21061;-50
2020/12/07 08:59:00;;;;;;;22.70;10.43;;;;;;;-3.45;83.26;96732.86;1801670;78;21135;-51
2020/12/07 09:01:28;;;;;;;21.23;9.65;;;;;;;-3.42;83.26;96719.70;1793126;78;21153;-51
2020/12/07 09:03:56;;;;;;;16.02;10.40;;;;;;;-3.37;82.85;96720.47;1793022;80;21176;-51
2020/12/07 09:06:23;;;;;;;20.65;10.75;;;;;;;-3.32;82.88;96712.80;1798961;78;21073;-51
2020/12/07 09:08:51;;;;;;;17.05;9.53;;;;;;;-3.27;82.50;96721.59;1792940;80;21121;-50
2020/12/07 09:11:20;;;;;;;17.37;10.25;;;;;;;-3.27;82.26;96715.25;1792953;80;21136;-51
2020/12/07 09:13:48;;;;;;;16.93;10.18;;;;;;;-3.31;82.52;96727.14;1792896;79;21668;-51
2020/12/07 09:16:16;;;;;;;18.57;9.38;;;;;;;-3.24;82.59;96722.83;1792983;78;21089;-51
2020/12/07 09:18:44;;;;;;;16.75;10.98;;;;;;;-3.19;82.04;96721.05;1796559;78;21049;-52
2020/12/07 09:21:14;;;;;;;12.93;7.87;;;;;;;-3.15;82.06;96721.00;1792856;79;21083;-52
2020/12/07 09:23:42;;;;;;;19.00;10.90;;;;;;;-3.11;81.61;96706.55;1792885;80;21060;-51
2020/12/07 09:26:09;;;;;;;18.50;10.53;;;;;;;-3.14;81.69;96715.52;1787960;79;21521;-51
2020/12/07 09:28:38;;;;;;;18.35;9.18;;;;;;;-3.18;82.13;96699.91;1826504;78;21584;-51
2020/12/07 09:31:08;;;;;;;14.63;7.80;;;;;;;-3.19;81.62;96721.92;1740473;80;21088;-51
2020/12/07 09:33:36;;;;;;;21.45;11.57;;;;;;;-3.22;81.63;96694.04;1820297;77;21474;-50
2020/12/07 09:36:04;;;;;;;20.08;10.82;;;;;;;-3.20;82.04;96703.73;1794352;78;21105;-52
2020/12/07 09:38:34;;;;;;;15.33;8.97;;;;;;;-3.19;81.85;96710.50;1797103;78;22223;-51
2020/12/07 09:41:01;;;;;;;17.50;9.38;;;;;;;-3.21;81.76;96698.27;1774359;80;21481;-52
2020/12/07 09:43:29;;;;;;;17.77;10.47;;;;;;;-3.22;81.79;96691.94;1796487;79;21148;-51
2020/12/07 09:45:57;;;;;;;21.57;12.07;;;;;;;-3.23;81.54;96697.42;1824643;78;21172;-51
2020/12/07 09:48:25;;;;;;;21.93;11.57;;;;;;;-3.25;82.01;96694.52;1812635;79;21041;-56
2020/12/07 09:50:53;;;;;;;21.30;11.78;;;;;;;-3.20;82.18;96691.04;1799773;78;21811;-53
2020/12/07 09:53:21;;;;;;;21.17;11.25;;;;;;;-3.03;81.58;96687.41;1792028;80;21117;-51
2020/12/07 09:55:51;;;;;;;16.90;10.25;;;;;;;-2.95;80.93;96685.59;1791511;80;21092;-51
2020/12/07 09:58:19;;;;;;;23.62;9.25;;;;;;;-3.02;80.67;96670.89;1804728;78;21105;-50
2020/12/07 10:00:46;;;;;;;18.25;11.10;;;;;;;-3.15;80.95;96670.67;1806423;79;21160;-50
2020/12/07 10:03:14;;;;;;;21.57;12.20;;;;;;;-3.24;81.15;96674.61;1825110;78;22189;-51
2020/12/07 10:05:42;;;;;;;23.53;11.80;;;;;;;-3.31;81.83;96669.22;1797920;78;21081;-50
2020/12/07 10:08:10;;;;;;;17.27;9.75;;;;;;;-3.25;81.97;96672.51;1817185;78;21113;-50
2020/12/07 10:10:38;;;;;;;26.10;12.07;;;;;;;-3.21;81.57;96693.59;1816202;78;21164;-50
2020/12/07 10:13:08;;;;;;;22.35;11.45;;;;;;;-3.27;81.50;96661.95;1790988;78;21125;-50
2020/12/07 10:15:35;;;;;;;20.52;12.18;;;;;;;-3.32;81.68;96679.81;1792290;78;21604;-51
2020/12/07 10:18:03;;;;;;;17.10;9.90;;;;;;;-3.29;81.96;96677.23;1806350;79;21085;-51
2020/12/07 10:20:30;;;;;;;20.70;11.15;;;;;;;-3.20;81.53;96684.70;1778475;78;21118;-51
2020/12/07 10:22:58;;;;;;;21.85;11.60;;;;;;;-3.17;81.20;96676.21;1797471;78;21172;-51
2020/12/07 10:25:26;;;;;;;15.72;9.15;;;;;;;-3.25;81.37;96663.63;1792973;78;21899;-51
2020/12/07 10:27:54;;;;;;;15.60;9.25;;;;;;;-3.29;81.47;96661.15;1814118;78;22690;-52
2020/12/07 10:30:21;;;;;;;18.60;9.85;;;;;;;-3.36;81.74;96687.05;1789642;78;21090;-50
2020/12/07 10:32:49;;;;;;;19.57;10.98;;;;;;;-3.43;81.79;96685.46;1792255;80;21129;-50
2020/12/07 10:35:17;;;;;;;22.42;11.73;;;;;;;-3.48;82.20;96660.59;1796402;78;21128;-50
2020/12/07 10:37:47;;;;;;;20.85;10.78;;;;;;;-3.48;82.31;96661.86;1788107;80;21081;-50
2020/12/07 10:40:14;;;;;;;22.35;12.50;;;;;;;-3.43;82.59;96671.51;1792190;80;21556;-51
2020/12/07 10:42:42;;;;;;;21.35;11.60;;;;;;;-3.34;82.43;96670.95;1790225;80;21074;-50
2020/12/07 10:45:10;;;;;;;20.95;11.25;;;;;;;-3.28;82.14;96660.30;1803084;78;21235;-50
2020/12/07 10:47:37;;;;;;;29.45;12.50;;;;;;;-3.25;81.47;96662.36;1814821;78;21156;-50
2020/12/07 10:50:05;;;;;;;20.25;10.95;;;;;;;-3.30;81.68;96683.16;1807181;78;21171;-50
2020/12/07 10:52:33;;;;;;;20.40;11.68;;;;;;;-3.33;81.99;96673.05;1810162;78;21406;-51
2020/12/07 10:55:01;;;;;;;27.32;13.28;;;;;;;-3.29;81.66;96683.58;1787186;80;21077;-51
2020/12/07 10:57:29;;;;;;;21.55;13.38;;;;;;;-3.36;81.80;96665.03;1795528;78;21103;-50
2020/12/07 10:59:56;;;;;;;24.55;11.85;;;;;;;-3.36;82.00;96668.02;1787094;78;21160;-50
2020/12/07 11:02:26;;;;;;;16.37;8.93;;;;;;;-3.33;82.01;96671.34;1781676;80;21065;-51
2020/12/07 11:04:53;;;;;;;18.82;11.20;;;;;;;-3.28;81.65;96659.86;1803063;78;22851;-52
2020/12/07 11:07:23;;;;;;;42.55;14.65;;;;;;;-3.26;81.58;96663.65;1782454;80;21120;-50
2020/12/07 11:09:52;;;;;;;17.10;9.63;;;;;;;-3.23;81.78;96657.27;1799020;79;21498;-52
2020/12/07 11:12:22;;;;;;;22.22;10.28;;;;;;;-3.20;81.63;96671.18;1818889;78;21112;-52
2020/12/07 11:14:49;;;;;;;23.20;13.18;;;;;;;-3.24;81.21;96652.63;1795562;78;21589;-50
2020/12/07 11:17:17;;;;;;;24.93;11.90;;;;;;;-3.33;81.80;96652.75;1815736;79;21367;-51
2020/12/07 11:19:46;;;;;;;22.65;11.22;;;;;;;-3.38;82.20;96654.08;1819043;78;21053;-50
2020/12/07 11:22:13;;;;;;;20.08;10.98;;;;;;;-3.38;82.18;96668.47;1783691;79;21046;-50
2020/12/07 11:24:41;;;;;;;26.02;10.65;;;;;;;-3.36;82.14;96666.74;1798969;79;21541;-50
2020/12/07 11:27:10;;;;;;;18.55;10.32;;;;;;;-3.38;82.06;96673.55;1797796;79;21124;-52
2020/12/07 11:29:38;;;;;;;;;;;;;;;-3.39;82.27;96674.39;1820586;78;22156;-51
2020/12/07 11:32:08;;;;;;;19.00;9.73;;;;;;;-3.40;82.31;96676.55;1787242;79;20207;-51
2020/12/07 11:34:36;;;;;;;20.37;10.93;;;;;;;-3.38;82.30;96674.81;1806794;78;21537;-50
2020/12/07 11:37:05;;;;;;;19.87;12.07;;;;;;;-3.36;82.23;96657.42;1811789;78;21513;-50
2020/12/07 11:44:36;;;;;;;20.57;12.65;;;;;;;-3.32;82.09;96667.12;1784133;79;21672;-50
2020/12/07 11:47:09;;;;;;;23.62;13.25;;;;;;;-3.35;82.23;96664.19;1783301;80;21053;-51
2020/12/07 11:49:36;;;;;;;25.05;13.98;;;;;;;-3.33;82.47;96666.27;1793375;79;21630;-51
2020/12/07 11:52:05;;;;;;;22.58;13.50;;;;;;;-3.27;82.65;96684.39;1813295;78;21885;-51
2020/12/07 11:54:33;;;;;;;23.87;10.75;;;;;;;-3.15;81.89;96665.59;1814424;79;21205;-50
2020/12/07 11:57:06;;;;;;;20.53;11.57;;;;;;;-3.11;81.41;96649.88;1799132;79;21115;-51
2020/12/07 11:59:35;;;;;;;20.17;10.03;;;;;;;-3.11;81.41;96649.88;1800843;78;21501;-51
2020/12/07 12:02:06;;;;;;;26.15;13.15;;;;;;;-3.24;81.64;96648.82;1800515;78;21068;-50
2020/12/07 12:04:34;;;;;;;22.25;12.43;;;;;;;-3.33;82.12;96656.12;1812010;78;21181;-50
2020/12/07 12:07:02;;;;;;;20.87;12.57;;;;;;;-3.34;82.55;96677.70;1812729;78;21602;-51
2020/12/07 12:09:30;;;;;;;25.60;13.23;;;;;;;-3.36;82.53;96685.77;1799373;79;21801;-51
2020/12/07 12:11:59;;;;;;;22.02;13.10;;;;;;;-3.37;82.71;96655.77;1821854;78;21175;-51
2020/12/07 12:14:27;;;;;;;21.10;12.00;;;;;;;-3.31;82.80;96659.91;1818330;78;21580;-50
2020/12/07 12:16:56;;;;;;;19.92;9.98;;;;;;;-3.19;82.14;96646.19;1806909;78;21039;-51
2020/12/07 12:19:24;;;;;;;19.95;12.07;;;;;;;-3.20;82.01;96652.14;1803339;78;21442;-51